sensor_id;sensor_type;location;lat;lon;timestamp;temperature;humidity
67364;HTU21D;54250;45.572;38.086;2023-04-10T00:00:00;6.87;85.65
67364;HTU21D;54250;45.572;38.086;2023-04-10T00:02:26;6.76;85.71
67364;HTU21D;54250;45.572;38.086;2023-04-10T00:04:52;6.65;85.83
67364;HTU21D;54250;45.572;38.086;2023-04-10T00:07:18;6.58;85.84
67364;HTU21D;54250;45.572;38.086;2023-04-10T00:09:45;6.52;85.80
67364;HTU21D;54250;45.572;38.086;2023-04-10T00:12:11;6.46;85.77
67364;HTU21D;54250;45.572;38.086;2023-04-10T00:14:37;6.48;85.71
67364;HTU21D;54250;45.572;38.086;2023-04-10T00:17:03;6.44;85.67
67364;HTU21D;54250;45.572;38.086;2023-04-10T00:19:29;6.44;85.64
67364;HTU21D;54250;45.572;38.086;2023-04-10T00:21:55;6.50;85.57
67364;HTU21D;54250;45.572;38.086;2023-04-10T00:24:21;6.53;85.61
67364;HTU21D;54250;45.572;38.086;2023-04-10T00:26:47;6.57;85.60
67364;HTU21D;54250;45.572;38.086;2023-04-10T00:29:14;6.63;85.75
67364;HTU21D;54250;45.572;38.086;2023-04-10T00:31:40;6.61;85.80
67364;HTU21D;54250;45.572;38.086;2023-04-10T00:34:06;6.60;85.86
67364;HTU21D;54250;45.572;38.086;2023-04-10T00:36:34;6.54;85.91
67364;HTU21D;54250;45.572;38.086;2023-04-10T00:39:00;6.49;86.06
67364;HTU21D;54250;45.572;38.086;2023-04-10T00:41:26;6.48;85.98
67364;HTU21D;54250;45.572;38.086;2023-04-10T00:43:55;6.45;85.97
67364;HTU21D;54250;45.572;38.086;2023-04-10T00:46:22;6.44;85.99
67364;HTU21D;54250;45.572;38.086;2023-04-10T00:48:50;6.42;85.99
67364;HTU21D;54250;45.572;38.086;2023-04-10T00:51:18;6.42;86.03
67364;HTU21D;54250;45.572;38.086;2023-04-10T00:53:49;6.43;85.94
67364;HTU21D;54250;45.572;38.086;2023-04-10T00:56:24;6.38;86.00
67364;HTU21D;54250;45.572;38.086;2023-04-10T00:58:50;6.34;86.06
67364;HTU21D;54250;45.572;38.086;2023-04-10T01:01:17;6.28;86.06
67364;HTU21D;54250;45.572;38.086;2023-04-10T01:03:43;6.28;86.20
67364;HTU21D;54250;45.572;38.086;2023-04-10T01:06:32;6.29;85.97
67364;HTU21D;54250;45.572;38.086;2023-04-10T01:11:56;6.25;85.97
67364;HTU21D;54250;45.572;38.086;2023-04-10T01:14:44;6.33;85.93
67364;HTU21D;54250;45.572;38.086;2023-04-10T01:20:09;6.37;85.99
67364;HTU21D;54250;45.572;38.086;2023-04-10T01:22:48;6.45;85.93
67364;HTU21D;54250;45.572;38.086;2023-04-10T01:25:39;6.52;85.74
67364;HTU21D;54250;45.572;38.086;2023-04-10T01:30:58;6.53;86.00
67364;HTU21D;54250;45.572;38.086;2023-04-10T01:33:37;6.57;86.00
67364;HTU21D;54250;45.572;38.086;2023-04-10T01:36:05;6.60;85.97
67364;HTU21D;54250;45.572;38.086;2023-04-10T01:38:32;6.61;85.93
67364;HTU21D;54250;45.572;38.086;2023-04-10T01:41:01;6.67;86.19
67364;HTU21D;54250;45.572;38.086;2023-04-10T01:43:29;6.76;86.19
67364;HTU21D;54250;45.572;38.086;2023-04-10T01:45:57;6.78;86.18
67364;HTU21D;54250;45.572;38.086;2023-04-10T01:48:24;6.86;86.29
67364;HTU21D;54250;45.572;38.086;2023-04-10T01:50:51;6.88;86.28
67364;HTU21D;54250;45.572;38.086;2023-04-10T01:53:19;6.91;86.34
67364;HTU21D;54250;45.572;38.086;2023-04-10T01:55:46;6.91;86.41
67364;HTU21D;54250;45.572;38.086;2023-04-10T01:58:13;6.94;86.41
67364;HTU21D;54250;45.572;38.086;2023-04-10T02:00:41;6.94;86.45
67364;HTU21D;54250;45.572;38.086;2023-04-10T02:03:09;6.95;86.44
67364;HTU21D;54250;45.572;38.086;2023-04-10T02:06:00;6.88;86.42
67364;HTU21D;54250;45.572;38.086;2023-04-10T02:08:52;6.84;86.48
67364;HTU21D;54250;45.572;38.086;2023-04-10T02:11:56;6.79;86.60
67364;HTU21D;54250;45.572;38.086;2023-04-10T02:14:27;6.78;86.72
67364;HTU21D;54250;45.572;38.086;2023-04-10T02:16:56;6.73;86.74
67364;HTU21D;54250;45.572;38.086;2023-04-10T02:19:25;6.81;86.83
67364;HTU21D;54250;45.572;38.086;2023-04-10T02:21:52;6.88;86.70
67364;HTU21D;54250;45.572;38.086;2023-04-10T02:24:19;6.90;86.83
67364;HTU21D;54250;45.572;38.086;2023-04-10T02:26:47;6.95;86.91
67364;HTU21D;54250;45.572;38.086;2023-04-10T02:29:13;6.98;87.13
67364;HTU21D;54250;45.572;38.086;2023-04-10T02:31:40;7.01;87.16
67364;HTU21D;54250;45.572;38.086;2023-04-10T02:34:06;7.02;87.27
67364;HTU21D;54250;45.572;38.086;2023-04-10T02:36:36;7.08;87.38
67364;HTU21D;54250;45.572;38.086;2023-04-10T02:39:04;7.09;87.37
67364;HTU21D;54250;45.572;38.086;2023-04-10T02:41:31;7.04;87.44
67364;HTU21D;54250;45.572;38.086;2023-04-10T02:44:02;7.02;87.51
67364;HTU21D;54250;45.572;38.086;2023-04-10T02:46:28;7.09;87.61
67364;HTU21D;54250;45.572;38.086;2023-04-10T02:48:55;7.11;87.48
67364;HTU21D;54250;45.572;38.086;2023-04-10T02:51:22;7.20;87.59
67364;HTU21D;54250;45.572;38.086;2023-04-10T02:53:48;7.26;87.52
67364;HTU21D;54250;45.572;38.086;2023-04-10T02:56:24;7.29;87.54
67364;HTU21D;54250;45.572;38.086;2023-04-10T02:58:51;7.33;87.64
67364;HTU21D;54250;45.572;38.086;2023-04-10T03:01:18;7.41;87.77
67364;HTU21D;54250;45.572;38.086;2023-04-10T03:03:46;7.47;87.80
67364;HTU21D;54250;45.572;38.086;2023-04-10T03:06:18;7.54;87.87
67364;HTU21D;54250;45.572;38.086;2023-04-10T03:08:46;7.69;87.83
67364;HTU21D;54250;45.572;38.086;2023-04-10T03:11:12;7.87;87.81
67364;HTU21D;54250;45.572;38.086;2023-04-10T03:13:38;8.12;87.71
67364;HTU21D;54250;45.572;38.086;2023-04-10T03:16:05;8.22;87.56
67364;HTU21D;54250;45.572;38.086;2023-04-10T03:18:31;8.29;88.22
67364;HTU21D;54250;45.572;38.086;2023-04-10T03:20:59;8.52;88.12
67364;HTU21D;54250;45.572;38.086;2023-04-10T03:23:26;8.64;88.29
67364;HTU21D;54250;45.572;38.086;2023-04-10T03:25:53;8.63;88.65
67364;HTU21D;54250;45.572;38.086;2023-04-10T03:28:22;8.67;88.71
67364;HTU21D;54250;45.572;38.086;2023-04-10T03:30:49;8.81;88.85
67364;HTU21D;54250;45.572;38.086;2023-04-10T03:33:15;9.03;88.51
67364;HTU21D;54250;45.572;38.086;2023-04-10T03:35:41;9.25;88.28
67364;HTU21D;54250;45.572;38.086;2023-04-10T03:38:07;9.46;88.06
67364;HTU21D;54250;45.572;38.086;2023-04-10T03:40:34;9.72;87.83
67364;HTU21D;54250;45.572;38.086;2023-04-10T03:43:01;10.24;87.05
67364;HTU21D;54250;45.572;38.086;2023-04-10T03:45:30;10.64;86.24
67364;HTU21D;54250;45.572;38.086;2023-04-10T03:47:59;10.78;86.26
67364;HTU21D;54250;45.572;38.086;2023-04-10T03:50:27;10.93;86.48
67364;HTU21D;54250;45.572;38.086;2023-04-10T03:52:57;11.29;86.18
67364;HTU21D;54250;45.572;38.086;2023-04-10T03:55:25;11.98;84.91
67364;HTU21D;54250;45.572;38.086;2023-04-10T03:57:51;12.67;83.57
67364;HTU21D;54250;45.572;38.086;2023-04-10T04:00:20;13.19;83.24
67364;HTU21D;54250;45.572;38.086;2023-04-10T04:02:47;13.86;81.89
67364;HTU21D;54250;45.572;38.086;2023-04-10T04:05:33;14.34;81.26
67364;HTU21D;54250;45.572;38.086;2023-04-10T04:08:17;14.60;80.60
67364;HTU21D;54250;45.572;38.086;2023-04-10T04:11:04;14.32;81.55
67364;HTU21D;54250;45.572;38.086;2023-04-10T04:13:50;14.38;81.36
67364;HTU21D;54250;45.572;38.086;2023-04-10T04:16:36;14.50;80.65
67364;HTU21D;54250;45.572;38.086;2023-04-10T04:19:22;14.20;80.46
67364;HTU21D;54250;45.572;38.086;2023-04-10T04:22:09;13.90;80.64
67364;HTU21D;54250;45.572;38.086;2023-04-10T04:24:54;13.80;80.62
67364;HTU21D;54250;45.572;38.086;2023-04-10T04:27:43;14.27;78.55
67364;HTU21D;54250;45.572;38.086;2023-04-10T04:30:28;14.20;78.14
67364;HTU21D;54250;45.572;38.086;2023-04-10T04:33:13;14.25;77.95
67364;HTU21D;54250;45.572;38.086;2023-04-10T04:36:08;14.11;78.00
67364;HTU21D;54250;45.572;38.086;2023-04-10T04:38:40;13.29;78.82
67364;HTU21D;54250;45.572;38.086;2023-04-10T04:41:23;12.40;80.39
67364;HTU21D;54250;45.572;38.086;2023-04-10T04:44:05;11.76;81.49
67364;HTU21D;54250;45.572;38.086;2023-04-10T04:46:49;11.37;82.12
67364;HTU21D;54250;45.572;38.086;2023-04-10T04:49:27;11.23;82.07
67364;HTU21D;54250;45.572;38.086;2023-04-10T04:52:16;11.01;82.29
67364;HTU21D;54250;45.572;38.086;2023-04-10T04:55:02;10.87;82.47
67364;HTU21D;54250;45.572;38.086;2023-04-10T04:57:52;10.72;82.82
67364;HTU21D;54250;45.572;38.086;2023-04-10T05:00:27;10.71;82.81
67364;HTU21D;54250;45.572;38.086;2023-04-10T05:03:22;10.73;82.69
67364;HTU21D;54250;45.572;38.086;2023-04-10T05:06:11;10.81;82.78
67364;HTU21D;54250;45.572;38.086;2023-04-10T05:09:03;11.00;82.55
67364;HTU21D;54250;45.572;38.086;2023-04-10T05:11:44;11.29;82.32
67364;HTU21D;54250;45.572;38.086;2023-04-10T05:14:18;12.03;80.88
67364;HTU21D;54250;45.572;38.086;2023-04-10T05:17:00;12.01;80.91
67364;HTU21D;54250;45.572;38.086;2023-04-10T05:19:48;11.92;81.63
67364;HTU21D;54250;45.572;38.086;2023-04-10T05:22:33;12.03;81.85
67364;HTU21D;54250;45.572;38.086;2023-04-10T05:25:32;13.17;80.14
67364;HTU21D;54250;45.572;38.086;2023-04-10T05:28:24;13.93;78.36
67364;HTU21D;54250;45.572;38.086;2023-04-10T05:31:00;14.45;77.55
67364;HTU21D;54250;45.572;38.086;2023-04-10T05:33:47;16.15;74.84
67364;HTU21D;54250;45.572;38.086;2023-04-10T05:36:28;17.82;71.27
67364;HTU21D;54250;45.572;38.086;2023-04-10T05:39:20;18.37;69.92
67364;HTU21D;54250;45.572;38.086;2023-04-10T05:42:04;18.83;69.74
67364;HTU21D;54250;45.572;38.086;2023-04-10T05:44:51;18.57;69.83
67364;HTU21D;54250;45.572;38.086;2023-04-10T05:47:56;17.16;73.92
67364;HTU21D;54250;45.572;38.086;2023-04-10T05:50:31;17.15;74.14
67364;HTU21D;54250;45.572;38.086;2023-04-10T05:53:30;18.80;70.58
67364;HTU21D;54250;45.572;38.086;2023-04-10T05:56:16;19.16;69.42
67364;HTU21D;54250;45.572;38.086;2023-04-10T05:59:02;20.10;68.12
67364;HTU21D;54250;45.572;38.086;2023-04-10T06:01:47;20.27;67.75
67364;HTU21D;54250;45.572;38.086;2023-04-10T06:04:14;21.55;66.44
67364;HTU21D;54250;45.572;38.086;2023-04-10T06:06:40;23.40;62.98
67364;HTU21D;54250;45.572;38.086;2023-04-10T06:09:06;24.04;61.14
67364;HTU21D;54250;45.572;38.086;2023-04-10T06:11:33;23.47;62.21
67364;HTU21D;54250;45.572;38.086;2023-04-10T06:14:00;22.96;61.38
67364;HTU21D;54250;45.572;38.086;2023-04-10T06:16:36;22.50;63.27
67364;HTU21D;54250;45.572;38.086;2023-04-10T06:19:02;21.60;64.92
67364;HTU21D;54250;45.572;38.086;2023-04-10T06:21:29;21.85;64.43
67364;HTU21D;54250;45.572;38.086;2023-04-10T06:23:55;22.82;62.77
67364;HTU21D;54250;45.572;38.086;2023-04-10T06:26:21;23.50;60.93
67364;HTU21D;54250;45.572;38.086;2023-04-10T06:28:47;23.31;61.63
67364;HTU21D;54250;45.572;38.086;2023-04-10T06:31:17;22.57;62.25
67364;HTU21D;54250;45.572;38.086;2023-04-10T06:33:43;21.14;64.84
67364;HTU21D;54250;45.572;38.086;2023-04-10T06:36:10;20.42;65.76
67364;HTU21D;54250;45.572;38.086;2023-04-10T06:38:45;20.69;64.86
67364;HTU21D;54250;45.572;38.086;2023-04-10T06:41:12;21.20;63.71
67364;HTU21D;54250;45.572;38.086;2023-04-10T06:43:38;22.03;61.50
67364;HTU21D;54250;45.572;38.086;2023-04-10T06:46:05;23.11;59.89
67364;HTU21D;54250;45.572;38.086;2023-04-10T06:48:31;23.18;59.32
67364;HTU21D;54250;45.572;38.086;2023-04-10T06:50:58;23.25;59.26
67364;HTU21D;54250;45.572;38.086;2023-04-10T06:53:27;23.43;58.34
67364;HTU21D;54250;45.572;38.086;2023-04-10T06:55:53;22.93;58.93
67364;HTU21D;54250;45.572;38.086;2023-04-10T06:58:20;23.00;59.90
67364;HTU21D;54250;45.572;38.086;2023-04-10T07:00:46;23.43;57.76
67364;HTU21D;54250;45.572;38.086;2023-04-10T07:03:12;23.32;58.28
67364;HTU21D;54250;45.572;38.086;2023-04-10T07:05:38;23.85;57.74
67364;HTU21D;54250;45.572;38.086;2023-04-10T07:08:04;23.69;57.22
67364;HTU21D;54250;45.572;38.086;2023-04-10T07:10:30;23.30;57.26
67364;HTU21D;54250;45.572;38.086;2023-04-10T07:12:56;23.18;58.17
67364;HTU21D;54250;45.572;38.086;2023-04-10T07:15:23;23.79;57.74
67364;HTU21D;54250;45.572;38.086;2023-04-10T07:17:50;23.88;56.81
67364;HTU21D;54250;45.572;38.086;2023-04-10T07:20:16;24.54;56.55
67364;HTU21D;54250;45.572;38.086;2023-04-10T07:22:42;24.86;54.64
67364;HTU21D;54250;45.572;38.086;2023-04-10T07:25:09;24.77;55.60
67364;HTU21D;54250;45.572;38.086;2023-04-10T07:27:35;24.80;54.76
67364;HTU21D;54250;45.572;38.086;2023-04-10T07:30:01;24.72;54.83
67364;HTU21D;54250;45.572;38.086;2023-04-10T07:32:27;24.91;54.01
67364;HTU21D;54250;45.572;38.086;2023-04-10T07:34:53;24.86;52.50
67364;HTU21D;54250;45.572;38.086;2023-04-10T07:37:19;24.39;52.82
67364;HTU21D;54250;45.572;38.086;2023-04-10T07:39:45;23.81;54.12
67364;HTU21D;54250;45.572;38.086;2023-04-10T07:42:12;23.42;55.23
67364;HTU21D;54250;45.572;38.086;2023-04-10T07:44:38;24.05;54.77
67364;HTU21D;54250;45.572;38.086;2023-04-10T07:47:04;24.59;53.33
67364;HTU21D;54250;45.572;38.086;2023-04-10T07:49:30;25.06;53.20
67364;HTU21D;54250;45.572;38.086;2023-04-10T07:51:56;25.48;52.60
67364;HTU21D;54250;45.572;38.086;2023-04-10T07:54:22;24.99;51.30
67364;HTU21D;54250;45.572;38.086;2023-04-10T07:56:51;24.24;53.10
67364;HTU21D;54250;45.572;38.086;2023-04-10T07:59:17;25.34;51.98
67364;HTU21D;54250;45.572;38.086;2023-04-10T08:01:43;25.89;50.62
67364;HTU21D;54250;45.572;38.086;2023-04-10T08:04:09;25.69;51.06
67364;HTU21D;54250;45.572;38.086;2023-04-10T08:06:35;25.96;50.98
67364;HTU21D;54250;45.572;38.086;2023-04-10T08:09:02;25.63;51.08
67364;HTU21D;54250;45.572;38.086;2023-04-10T08:11:29;25.36;51.56
67364;HTU21D;54250;45.572;38.086;2023-04-10T08:13:59;25.16;52.21
67364;HTU21D;54250;45.572;38.086;2023-04-10T08:16:33;25.22;51.92
67364;HTU21D;54250;45.572;38.086;2023-04-10T08:18:59;24.80;51.85
67364;HTU21D;54250;45.572;38.086;2023-04-10T08:21:27;24.27;52.83
67364;HTU21D;54250;45.572;38.086;2023-04-10T08:23:59;24.27;52.82
67364;HTU21D;54250;45.572;38.086;2023-04-10T08:26:26;24.50;52.29
67364;HTU21D;54250;45.572;38.086;2023-04-10T08:28:54;24.27;51.34
67364;HTU21D;54250;45.572;38.086;2023-04-10T08:31:22;24.16;52.36
67364;HTU21D;54250;45.572;38.086;2023-04-10T08:33:48;24.35;52.48
67364;HTU21D;54250;45.572;38.086;2023-04-10T08:36:15;24.75;51.77
67364;HTU21D;54250;45.572;38.086;2023-04-10T08:38:42;24.94;50.90
67364;HTU21D;54250;45.572;38.086;2023-04-10T08:41:16;24.54;51.70
67364;HTU21D;54250;45.572;38.086;2023-04-10T08:43:42;24.29;51.05
67364;HTU21D;54250;45.572;38.086;2023-04-10T08:46:10;23.51;53.09
67364;HTU21D;54250;45.572;38.086;2023-04-10T08:48:46;23.18;53.67
67364;HTU21D;54250;45.572;38.086;2023-04-10T08:51:18;22.62;54.24
67364;HTU21D;54250;45.572;38.086;2023-04-10T08:53:44;21.91;55.84
67364;HTU21D;54250;45.572;38.086;2023-04-10T08:56:12;21.28;56.99
67364;HTU21D;54250;45.572;38.086;2023-04-10T08:58:40;21.20;57.84
67364;HTU21D;54250;45.572;38.086;2023-04-10T09:01:08;22.09;56.29
67364;HTU21D;54250;45.572;38.086;2023-04-10T09:03:35;22.37;55.52
67364;HTU21D;54250;45.572;38.086;2023-04-10T09:06:02;22.62;55.36
67364;HTU21D;54250;45.572;38.086;2023-04-10T09:08:29;22.90;55.17
67364;HTU21D;54250;45.572;38.086;2023-04-10T09:10:56;22.80;55.41
67364;HTU21D;54250;45.572;38.086;2023-04-10T09:13:40;23.85;54.13
67364;HTU21D;54250;45.572;38.086;2023-04-10T09:16:08;24.41;52.46
67364;HTU21D;54250;45.572;38.086;2023-04-10T09:18:48;24.95;52.47
67364;HTU21D;54250;45.572;38.086;2023-04-10T09:21:17;25.65;50.70
67364;HTU21D;54250;45.572;38.086;2023-04-10T09:23:44;24.26;52.02
67364;HTU21D;54250;45.572;38.086;2023-04-10T09:26:27;22.83;55.17
67364;HTU21D;54250;45.572;38.086;2023-04-10T09:29:00;22.35;56.22
67364;HTU21D;54250;45.572;38.086;2023-04-10T09:31:32;23.11;54.36
67364;HTU21D;54250;45.572;38.086;2023-04-10T09:34:16;24.14;52.71
67364;HTU21D;54250;45.572;38.086;2023-04-10T09:36:56;24.83;51.70
67364;HTU21D;54250;45.572;38.086;2023-04-10T09:39:38;25.21;51.42
67364;HTU21D;54250;45.572;38.086;2023-04-10T09:42:09;25.00;51.83
67364;HTU21D;54250;45.572;38.086;2023-04-10T09:44:39;25.20;51.04
67364;HTU21D;54250;45.572;38.086;2023-04-10T09:47:25;25.44;51.06
67364;HTU21D;54250;45.572;38.086;2023-04-10T09:49:55;25.09;49.93
67364;HTU21D;54250;45.572;38.086;2023-04-10T09:52:28;24.39;51.42
67364;HTU21D;54250;45.572;38.086;2023-04-10T09:55:02;23.58;52.82
67364;HTU21D;54250;45.572;38.086;2023-04-10T09:57:35;22.60;54.17
67364;HTU21D;54250;45.572;38.086;2023-04-10T10:00:03;21.84;55.75
67364;HTU21D;54250;45.572;38.086;2023-04-10T10:02:36;21.30;56.87
67364;HTU21D;54250;45.572;38.086;2023-04-10T10:05:07;21.06;57.71
67364;HTU21D;54250;45.572;38.086;2023-04-10T10:07:35;20.85;58.19
67364;HTU21D;54250;45.572;38.086;2023-04-10T10:10:02;20.51;58.70
67364;HTU21D;54250;45.572;38.086;2023-04-10T10:12:42;20.32;59.28
67364;HTU21D;54250;45.572;38.086;2023-04-10T10:17:42;20.36;59.73
67364;HTU21D;54250;45.572;38.086;2023-04-10T10:20:12;20.33;59.99
67364;HTU21D;54250;45.572;38.086;2023-04-10T10:22:39;20.35;59.91
67364;HTU21D;54250;45.572;38.086;2023-04-10T10:25:06;20.26;59.89
67364;HTU21D;54250;45.572;38.086;2023-04-10T10:27:36;20.28;59.86
67364;HTU21D;54250;45.572;38.086;2023-04-10T10:30:06;20.36;59.94
67364;HTU21D;54250;45.572;38.086;2023-04-10T10:32:34;20.53;59.68
67364;HTU21D;54250;45.572;38.086;2023-04-10T10:35:04;20.42;59.67
67364;HTU21D;54250;45.572;38.086;2023-04-10T10:37:34;20.28;60.11
67364;HTU21D;54250;45.572;38.086;2023-04-10T10:40:09;20.22;60.16
67364;HTU21D;54250;45.572;38.086;2023-04-10T10:42:45;20.15;60.30
67364;HTU21D;54250;45.572;38.086;2023-04-10T10:45:22;20.14;60.53
67364;HTU21D;54250;45.572;38.086;2023-04-10T10:47:52;20.20;60.58
67364;HTU21D;54250;45.572;38.086;2023-04-10T10:50:19;20.22;60.58
67364;HTU21D;54250;45.572;38.086;2023-04-10T10:52:46;20.17;60.12
67364;HTU21D;54250;45.572;38.086;2023-04-10T10:55:33;20.16;60.28
67364;HTU21D;54250;45.572;38.086;2023-04-10T10:58:06;20.14;59.99
67364;HTU21D;54250;45.572;38.086;2023-04-10T11:05:51;19.94;60.25
67364;HTU21D;54250;45.572;38.086;2023-04-10T11:08:42;19.86;60.45
67364;HTU21D;54250;45.572;38.086;2023-04-10T11:11:15;19.63;60.96
67364;HTU21D;54250;45.572;38.086;2023-04-10T11:16:18;19.56;61.54
67364;HTU21D;54250;45.572;38.086;2023-04-10T11:21:20;19.38;61.80
67364;HTU21D;54250;45.572;38.086;2023-04-10T11:32:00;19.31;61.90
67364;HTU21D;54250;45.572;38.086;2023-04-10T11:34:26;19.32;62.06
67364;HTU21D;54250;45.572;38.086;2023-04-10T11:36:53;19.30;62.24
67364;HTU21D;54250;45.572;38.086;2023-04-10T11:39:20;19.23;62.35
67364;HTU21D;54250;45.572;38.086;2023-04-10T11:44:18;19.21;62.64
67364;HTU21D;54250;45.572;38.086;2023-04-10T11:46:47;19.15;62.63
67364;HTU21D;54250;45.572;38.086;2023-04-10T11:49:20;19.12;62.77
67364;HTU21D;54250;45.572;38.086;2023-04-10T11:51:48;19.11;62.84
67364;HTU21D;54250;45.572;38.086;2023-04-10T11:54:19;19.10;62.88
67364;HTU21D;54250;45.572;38.086;2023-04-10T11:57:02;19.09;62.66
67364;HTU21D;54250;45.572;38.086;2023-04-10T11:59:30;19.09;62.57
67364;HTU21D;54250;45.572;38.086;2023-04-10T12:04:30;18.99;62.44
67364;HTU21D;54250;45.572;38.086;2023-04-10T12:06:57;19.00;62.63
67364;HTU21D;54250;45.572;38.086;2023-04-10T12:09:23;19.00;62.44
67364;HTU21D;54250;45.572;38.086;2023-04-10T12:14:19;18.87;62.71
67364;HTU21D;54250;45.572;38.086;2023-04-10T12:16:47;18.88;62.78
67364;HTU21D;54250;45.572;38.086;2023-04-10T12:19:14;18.85;62.84
67364;HTU21D;54250;45.572;38.086;2023-04-10T12:21:43;18.80;62.84
67364;HTU21D;54250;45.572;38.086;2023-04-10T12:24:10;18.78;62.91
67364;HTU21D;54250;45.572;38.086;2023-04-10T12:26:36;18.74;63.01
67364;HTU21D;54250;45.572;38.086;2023-04-10T12:29:02;18.70;63.15
67364;HTU21D;54250;45.572;38.086;2023-04-10T12:31:33;18.66;63.26
67364;HTU21D;54250;45.572;38.086;2023-04-10T12:34:02;18.61;63.34
67364;HTU21D;54250;45.572;38.086;2023-04-10T12:36:31;18.55;63.48
67364;HTU21D;54250;45.572;38.086;2023-04-10T12:39:01;18.50;63.66
67364;HTU21D;54250;45.572;38.086;2023-04-10T12:41:30;18.47;63.79
67364;HTU21D;54250;45.572;38.086;2023-04-10T12:46:33;18.34;64.15
67364;HTU21D;54250;45.572;38.086;2023-04-10T12:49:14;18.27;64.33
67364;HTU21D;54250;45.572;38.086;2023-04-10T12:54:11;18.20;64.61
67364;HTU21D;54250;45.572;38.086;2023-04-10T12:56:51;18.18;64.69
67364;HTU21D;54250;45.572;38.086;2023-04-10T12:59:18;18.14;64.80
67364;HTU21D;54250;45.572;38.086;2023-04-10T13:01:44;18.11;64.86
67364;HTU21D;54250;45.572;38.086;2023-04-10T13:04:10;18.09;64.93
67364;HTU21D;54250;45.572;38.086;2023-04-10T13:06:46;18.09;64.97
67364;HTU21D;54250;45.572;38.086;2023-04-10T13:09:13;18.06;65.06
67364;HTU21D;54250;45.572;38.086;2023-04-10T13:11:41;18.04;65.13
67364;HTU21D;54250;45.572;38.086;2023-04-10T13:14:07;18.03;65.21
67364;HTU21D;54250;45.572;38.086;2023-04-10T13:16:34;17.98;65.33
67364;HTU21D;54250;45.572;38.086;2023-04-10T13:19:00;17.92;65.51
67364;HTU21D;54250;45.572;38.086;2023-04-10T13:21:26;17.83;65.69
67364;HTU21D;54250;45.572;38.086;2023-04-10T13:23:56;17.76;65.91
67364;HTU21D;54250;45.572;38.086;2023-04-10T13:26:23;17.68;66.05
67364;HTU21D;54250;45.572;38.086;2023-04-10T13:28:49;17.60;66.17
67364;HTU21D;54250;45.572;38.086;2023-04-10T13:31:15;17.53;66.33
67364;HTU21D;54250;45.572;38.086;2023-04-10T13:33:45;17.49;66.49
67364;HTU21D;54250;45.572;38.086;2023-04-10T13:36:13;17.40;66.80
67364;HTU21D;54250;45.572;38.086;2023-04-10T13:38:40;16.40;69.83
67364;HTU21D;54250;45.572;38.086;2023-04-10T13:41:06;15.13;72.41
67364;HTU21D;54250;45.572;38.086;2023-04-10T13:43:32;14.39;74.00
67364;HTU21D;54250;45.572;38.086;2023-04-10T13:45:59;14.07;73.90
67364;HTU21D;54250;45.572;38.086;2023-04-10T13:48:25;14.08;73.12
67364;HTU21D;54250;45.572;38.086;2023-04-10T13:50:51;14.10;72.63
67364;HTU21D;54250;45.572;38.086;2023-04-10T13:53:22;14.11;72.23
67364;HTU21D;54250;45.572;38.086;2023-04-10T13:55:48;14.10;72.00
67364;HTU21D;54250;45.572;38.086;2023-04-10T13:58:15;14.03;71.94
67364;HTU21D;54250;45.572;38.086;2023-04-10T14:00:44;13.74;73.32
67364;HTU21D;54250;45.572;38.086;2023-04-10T14:03:11;13.18;75.11
67364;HTU21D;54250;45.572;38.086;2023-04-10T14:05:37;12.79;76.69
67364;HTU21D;54250;45.572;38.086;2023-04-10T14:08:04;12.55;78.66
67364;HTU21D;54250;45.572;38.086;2023-04-10T14:10:30;12.49;78.50
67364;HTU21D;54250;45.572;38.086;2023-04-10T14:12:56;12.55;77.40
67364;HTU21D;54250;45.572;38.086;2023-04-10T14:15:22;12.66;76.66
67364;HTU21D;54250;45.572;38.086;2023-04-10T14:17:49;12.77;75.99
67364;HTU21D;54250;45.572;38.086;2023-04-10T14:20:15;12.87;75.62
67364;HTU21D;54250;45.572;38.086;2023-04-10T14:22:41;12.99;75.40
67364;HTU21D;54250;45.572;38.086;2023-04-10T14:25:07;13.17;75.26
67364;HTU21D;54250;45.572;38.086;2023-04-10T14:27:35;13.32;74.92
67364;HTU21D;54250;45.572;38.086;2023-04-10T14:30:02;13.44;74.99
67364;HTU21D;54250;45.572;38.086;2023-04-10T14:32:29;13.52;74.88
67364;HTU21D;54250;45.572;38.086;2023-04-10T14:34:55;13.59;74.83
67364;HTU21D;54250;45.572;38.086;2023-04-10T14:37:21;13.62;74.76
67364;HTU21D;54250;45.572;38.086;2023-04-10T14:39:47;13.62;74.97
67364;HTU21D;54250;45.572;38.086;2023-04-10T14:42:13;13.64;75.12
67364;HTU21D;54250;45.572;38.086;2023-04-10T14:44:39;13.65;75.31
67364;HTU21D;54250;45.572;38.086;2023-04-10T14:47:05;13.73;75.34
67364;HTU21D;54250;45.572;38.086;2023-04-10T14:49:32;13.77;75.38
67364;HTU21D;54250;45.572;38.086;2023-04-10T14:51:59;13.79;75.44
67364;HTU21D;54250;45.572;38.086;2023-04-10T14:54:25;13.82;75.45
67364;HTU21D;54250;45.572;38.086;2023-04-10T14:56:51;13.83;75.54
67364;HTU21D;54250;45.572;38.086;2023-04-10T14:59:17;13.83;75.60
67364;HTU21D;54250;45.572;38.086;2023-04-10T15:01:43;13.86;75.60
67364;HTU21D;54250;45.572;38.086;2023-04-10T15:04:09;13.94;75.34
67364;HTU21D;54250;45.572;38.086;2023-04-10T15:06:36;14.05;74.96
67364;HTU21D;54250;45.572;38.086;2023-04-10T15:09:02;14.10;74.74
67364;HTU21D;54250;45.572;38.086;2023-04-10T15:11:28;14.10;74.67
67364;HTU21D;54250;45.572;38.086;2023-04-10T15:13:54;14.11;74.69
67364;HTU21D;54250;45.572;38.086;2023-04-10T15:16:21;14.12;74.71
67364;HTU21D;54250;45.572;38.086;2023-04-10T15:18:47;14.13;74.84
67364;HTU21D;54250;45.572;38.086;2023-04-10T15:21:16;14.15;74.96
67364;HTU21D;54250;45.572;38.086;2023-04-10T15:23:42;14.14;75.02
67364;HTU21D;54250;45.572;38.086;2023-04-10T15:26:12;14.15;75.12
67364;HTU21D;54250;45.572;38.086;2023-04-10T15:28:40;14.13;75.19
67364;HTU21D;54250;45.572;38.086;2023-04-10T15:31:08;14.11;75.55
67364;HTU21D;54250;45.572;38.086;2023-04-10T15:33:35;14.11;75.79
67364;HTU21D;54250;45.572;38.086;2023-04-10T15:36:04;14.07;75.74
67364;HTU21D;54250;45.572;38.086;2023-04-10T15:38:33;14.03;75.84
67364;HTU21D;54250;45.572;38.086;2023-04-10T15:41:00;13.98;75.93
67364;HTU21D;54250;45.572;38.086;2023-04-10T15:43:26;13.93;76.01
67364;HTU21D;54250;45.572;38.086;2023-04-10T15:45:52;13.88;76.06
67364;HTU21D;54250;45.572;38.086;2023-04-10T15:48:18;13.84;76.15
67364;HTU21D;54250;45.572;38.086;2023-04-10T15:50:47;13.81;76.17
67364;HTU21D;54250;45.572;38.086;2023-04-10T15:53:13;13.78;76.15
67364;HTU21D;54250;45.572;38.086;2023-04-10T15:55:39;13.74;76.21
67364;HTU21D;54250;45.572;38.086;2023-04-10T15:58:05;13.71;76.23
67364;HTU21D;54250;45.572;38.086;2023-04-10T16:00:32;13.66;76.31
67364;HTU21D;54250;45.572;38.086;2023-04-10T16:02:58;13.61;76.37
67364;HTU21D;54250;45.572;38.086;2023-04-10T16:05:24;13.58;76.47
67364;HTU21D;54250;45.572;38.086;2023-04-10T16:07:50;13.52;76.49